createdAt,value
2022-08-07T00:01:00.175Z,58.53
2022-08-07T00:04:15.715Z,58.38
2022-08-07T00:07:18.870Z,58.44
2022-08-07T00:10:25.978Z,58.47
2022-08-07T00:13:29.864Z,58.78
2022-08-07T00:16:32.280Z,58.92
2022-08-07T00:20:00.156Z,58.44
2022-08-07T00:22:57.882Z,58.33
2022-08-07T00:26:13.287Z,58.14
2022-08-07T00:29:31.337Z,57.73
2022-08-07T00:32:34.940Z,57.74
2022-08-07T00:35:37.532Z,57.39
2022-08-07T00:38:40.268Z,57.15
2022-08-07T00:42:02.023Z,57.12
2022-08-07T00:45:09.493Z,57.52
2022-08-07T00:48:18.974Z,57.53
2022-08-07T00:51:58.712Z,57.60
2022-08-07T00:54:53.542Z,57.94
2022-08-07T00:57:56.625Z,57.87
2022-08-07T01:00:59.491Z,57.64
2022-08-07T01:04:05.512Z,57.94
2022-08-07T01:07:12.683Z,57.89
2022-08-07T01:10:15.326Z,58.01
2022-08-07T01:13:21.756Z,57.63
2022-08-07T01:16:30.594Z,57.04
2022-08-07T01:19:34.315Z,57.10
2022-08-07T01:22:57.823Z,57.50
2022-08-07T01:26:05.595Z,57.18
2022-08-07T01:29:08.832Z,56.66
2022-08-07T01:32:12.562Z,57.23
2022-08-07T01:35:17.302Z,57.66
2022-08-07T01:38:24.973Z,57.75
2022-08-07T01:41:29.181Z,57.16
2022-08-07T01:44:35.959Z,57.56
2022-08-07T01:48:29.336Z,57.94
2022-08-07T01:51:24.758Z,58.12
2022-08-07T01:54:32.944Z,57.67
2022-08-07T01:58:06.547Z,57.87
2022-08-07T02:01:25.418Z,58.10
2022-08-07T02:04:59.412Z,58.02
2022-08-07T02:08:07.728Z,58.11
2022-08-07T02:11:30.982Z,58.25
2022-08-07T02:14:40.722Z,57.73
2022-08-07T02:17:49.616Z,57.50
2022-08-07T02:20:55.933Z,57.84
2022-08-07T02:24:00.649Z,58.25
2022-08-07T02:30:08.531Z,57.77
2022-08-07T02:33:13.816Z,58.09
2022-08-07T02:36:30.097Z,57.49
2022-08-07T02:40:02.239Z,57.41
2022-08-07T02:43:08.285Z,57.70
2022-08-07T02:46:11.582Z,58.18
2022-08-07T02:49:28.945Z,58.25
2022-08-07T02:52:47.816Z,58.10
2022-08-07T02:56:04.169Z,58.52
2022-08-07T02:59:11.705Z,58.52
2022-08-07T03:02:15.826Z,58.63
2022-08-07T03:05:20.478Z,58.47
2022-08-07T03:08:26.990Z,58.49
2022-08-07T03:11:38.793Z,58.73
2022-08-07T03:14:43.424Z,58.62
2022-08-07T03:17:54.487Z,58.34
2022-08-07T03:20:57.618Z,58.98
2022-08-07T03:24:19.695Z,58.82
2022-08-07T03:27:30.571Z,58.80
2022-08-07T03:30:45.795Z,58.70
2022-08-07T03:33:53.022Z,58.70
2022-08-07T03:36:57.458Z,58.84
2022-08-07T03:40:15.232Z,58.94
2022-08-07T03:43:19.072Z,58.45
2022-08-07T03:46:22.715Z,58.16
2022-08-07T03:49:30.366Z,57.61
2022-08-07T03:52:35.138Z,56.41
2022-08-07T03:55:52.789Z,56.12
2022-08-07T03:59:08.456Z,55.92
2022-08-07T04:02:15.831Z,55.41
2022-08-07T04:05:24.159Z,55.04
2022-08-07T04:08:42.592Z,54.78
2022-08-07T04:12:24.184Z,54.74
2022-08-07T04:15:11.903Z,54.68
2022-08-07T04:18:57.148Z,54.36
2022-08-07T04:21:37.938Z,54.39
2022-08-07T04:24:42.115Z,53.64
2022-08-07T04:27:46.240Z,53.45
2022-08-07T04:31:02.956Z,53.80
2022-08-07T04:34:16.941Z,53.26
2022-08-07T04:37:20.706Z,53.13
2022-08-07T04:40:26.745Z,52.93
2022-08-07T04:44:14.677Z,52.97
2022-08-07T04:48:01.052Z,52.76
2022-08-07T04:51:27.594Z,52.58
2022-08-07T04:54:58.139Z,52.52
2022-08-07T04:58:42.456Z,52.62
2022-08-07T05:01:44.798Z,52.89
2022-08-07T05:05:00.033Z,53.12
2022-08-07T05:08:07.730Z,53.53
2022-08-07T05:11:24.374Z,53.74
2022-08-07T05:14:53.516Z,53.51
2022-08-07T05:18:08.514Z,53.53
2022-08-07T05:21:14.620Z,52.87
2022-08-07T05:24:19.520Z,53.47
2022-08-07T05:28:16.692Z,53.23
2022-08-07T05:30:52.877Z,52.59
2022-08-07T05:34:04.881Z,52.91
2022-08-07T05:37:09.801Z,52.63
2022-08-07T05:40:19.060Z,53.08
2022-08-07T05:43:49.596Z,52.11
2022-08-07T05:46:51.097Z,51.96
2022-08-07T05:49:56.398Z,51.52
2022-08-07T05:53:04.072Z,51.11
2022-08-07T05:56:09.778Z,50.37
2022-08-07T05:59:16.012Z,50.52
2022-08-07T06:02:28.831Z,50.22
2022-08-07T06:05:34.283Z,49.76
2022-08-07T06:08:42.435Z,49.39
2022-08-07T06:11:47.145Z,49.63
2022-08-07T06:14:50.246Z,49.16
2022-08-07T06:17:55.332Z,49.23
2022-08-07T06:22:14.276Z,48.61
2022-08-07T06:24:52.288Z,48.57
2022-08-07T06:28:01.245Z,48.43
2022-08-07T06:31:05.704Z,47.67
2022-08-07T06:34:08.383Z,47.64
2022-08-07T06:37:12.396Z,47.03
2022-08-07T06:40:21.229Z,46.97
2022-08-07T06:43:26.735Z,46.31
2022-08-07T06:46:31.262Z,46.50
2022-08-07T06:49:34.698Z,45.91
2022-08-07T06:52:56.149Z,45.71
2022-08-07T06:56:02.419Z,45.34
2022-08-07T07:00:13.122Z,44.23
2022-08-07T07:02:49.253Z,42.95
2022-08-07T07:06:03.730Z,42.29
2022-08-07T07:09:31.384Z,42.06
2022-08-07T07:12:53.586Z,42.23
2022-08-07T07:16:03.102Z,42.33
2022-08-07T07:19:34.012Z,43.63
2022-08-07T07:22:36.117Z,43.58
2022-08-07T07:26:35.673Z,44.36
2022-08-07T07:29:57.049Z,45.36
2022-08-07T07:32:41.069Z,45.36
2022-08-07T07:36:05.034Z,44.93
2022-08-07T07:39:13.595Z,44.88
2022-08-07T07:42:19.989Z,44.49
2022-08-07T07:46:37.119Z,43.85
2022-08-07T07:49:00.434Z,43.52
2022-08-07T07:52:14.175Z,42.93
2022-08-07T07:55:20.825Z,42.30
2022-08-07T07:58:40.220Z,41.50
2022-08-07T08:02:03.563Z,41.34
2022-08-07T08:05:14.512Z,41.21
2022-08-07T08:08:35.339Z,40.23
2022-08-07T08:11:59.677Z,38.96
2022-08-07T08:15:02.155Z,38.70
2022-08-07T08:18:17.558Z,37.53
2022-08-07T08:21:55.365Z,36.20
2022-08-07T08:25:41.736Z,36.75
2022-08-07T08:28:45.552Z,35.74
2022-08-07T08:32:17.056Z,35.75
2022-08-07T08:35:17.136Z,35.85
2022-08-07T08:38:25.939Z,35.79
2022-08-07T08:41:57.218Z,35.91
2022-08-07T08:45:13.206Z,35.91
2022-08-07T08:48:22.151Z,36.13
2022-08-07T08:52:12.872Z,36.13
2022-08-07T08:55:20.779Z,35.08
2022-08-07T08:58:57.942Z,34.75
2022-08-07T09:02:36.645Z,34.11
2022-08-07T09:06:04.175Z,35.11
2022-08-07T09:09:37.184Z,33.78
2022-08-07T09:12:54.337Z,33.84
2022-08-07T09:16:22.377Z,33.47
2022-08-07T09:20:35.504Z,33.31
2022-08-07T09:24:33.074Z,33.24
2022-08-07T09:27:38.279Z,34.07
2022-08-07T09:31:38.612Z,34.32
2022-08-07T09:34:44.123Z,33.80
2022-08-07T09:38:12.109Z,32.78
2022-08-07T09:42:01.373Z,33.30
2022-08-07T09:47:27.560Z,33.50
2022-08-07T09:50:01.739Z,32.18
2022-08-07T09:52:51.596Z,32.60
2022-08-07T09:56:37.305Z,32.03
2022-08-07T10:00:03.866Z,32.00
2022-08-07T10:04:05.163Z,31.54
2022-08-07T10:07:11.562Z,32.30
2022-08-07T10:11:07.805Z,32.50
2022-08-07T10:14:23.002Z,32.70
2022-08-07T10:18:01.349Z,32.81
2022-08-07T10:21:20.064Z,32.79
2022-08-07T10:24:55.754Z,33.10
2022-08-07T10:28:37.452Z,32.57
2022-08-07T10:31:42.342Z,31.37
2022-08-07T10:35:25.486Z,31.24
2022-08-07T10:38:48.294Z,31.40
2022-08-07T10:42:20.695Z,31.47
2022-08-07T10:45:44.847Z,31.21
2022-08-07T10:49:49.585Z,31.35
2022-08-07T10:53:05.239Z,30.82
2022-08-07T10:56:43.151Z,30.67
2022-08-07T11:00:09.093Z,30.26
2022-08-07T11:03:21.563Z,30.49
2022-08-07T11:06:59.526Z,30.94
2022-08-07T11:10:11.049Z,31.42
2022-08-07T11:14:56.890Z,31.96
2022-08-07T11:17:42.717Z,31.97
2022-08-07T11:20:55.742Z,31.48
2022-08-07T11:24:10.655Z,31.28
2022-08-07T11:27:48.849Z,30.70
2022-08-07T11:31:02.702Z,31.06
2022-08-07T11:34:22.048Z,31.37
2022-08-07T11:37:58.057Z,30.50
2022-08-07T11:41:31.044Z,31.65
2022-08-07T11:45:05.990Z,31.33
2022-08-07T11:48:29.168Z,31.67
2022-08-07T11:51:50.891Z,31.72
2022-08-07T11:55:02.674Z,31.38
2022-08-07T11:58:40.877Z,30.72
2022-08-07T12:02:17.724Z,31.57
2022-08-07T12:05:58.410Z,31.22
2022-08-07T12:09:16.035Z,31.75
2022-08-07T12:12:28.359Z,31.10
2022-08-07T12:15:58.010Z,33.19
2022-08-07T12:19:21.775Z,32.42
2022-08-07T12:22:58.926Z,32.71
2022-08-07T12:26:46.659Z,32.71
2022-08-07T12:30:00.827Z,32.78
2022-08-07T12:33:28.284Z,32.26
2022-08-07T12:36:36.512Z,31.96
2022-08-07T12:39:50.518Z,31.63
2022-08-07T12:42:57.106Z,32.24
2022-08-07T12:46:25.996Z,32.21
2022-08-07T12:50:04.542Z,32.31
2022-08-07T12:53:19.003Z,32.44
2022-08-07T12:56:35.718Z,32.47
2022-08-07T12:59:55.507Z,32.36
2022-08-07T13:03:17.055Z,32.64
2022-08-07T13:07:01.116Z,32.21
2022-08-07T13:10:39.239Z,31.48
2022-08-07T13:14:03.311Z,31.44
2022-08-07T13:17:46.778Z,31.27
2022-08-07T13:20:57.293Z,30.92
2022-08-07T13:24:15.262Z,30.77
2022-08-07T13:27:33.325Z,30.88
2022-08-07T13:31:01.611Z,30.61
2022-08-07T13:34:32.872Z,31.16
2022-08-07T13:38:00.864Z,31.90
2022-08-07T13:41:06.917Z,31.89
2022-08-07T13:44:12.948Z,31.74
2022-08-07T13:47:21.788Z,31.99
2022-08-07T13:50:34.721Z,32.03
2022-08-07T13:54:00.264Z,32.18
2022-08-07T13:57:14.404Z,32.21
2022-08-07T14:00:26.709Z,32.53
2022-08-07T14:04:04.866Z,33.01
2022-08-07T14:07:05.366Z,32.90
2022-08-07T14:10:20.550Z,32.71
2022-08-07T14:13:33.446Z,32.82
2022-08-07T14:16:49.979Z,32.58
2022-08-07T14:20:43.049Z,32.49
2022-08-07T14:23:58.714Z,32.08
2022-08-07T14:26:55.026Z,32.24
2022-08-07T14:30:11.592Z,32.31
2022-08-07T14:33:16.789Z,32.58
2022-08-07T14:36:26.864Z,32.78
2022-08-07T14:40:17.848Z,32.57
2022-08-07T14:43:58.220Z,32.34
2022-08-07T14:46:31.425Z,32.50
2022-08-07T14:49:58.123Z,33.01
2022-08-07T14:56:29.660Z,33.13
2022-08-07T15:00:03.625Z,33.51
2022-08-07T15:06:27.707Z,33.51
2022-08-07T15:09:59.137Z,33.46
2022-08-07T15:13:01.082Z,33.60
2022-08-07T15:16:14.684Z,33.65
2022-08-07T15:26:20.669Z,33.49
2022-08-07T15:30:04.694Z,33.19
2022-08-07T15:36:26.280Z,33.87
2022-08-07T15:39:58.308Z,33.50
2022-08-07T15:43:33.109Z,33.72
2022-08-07T15:46:47.349Z,33.90
2022-08-07T15:53:24.365Z,34.06
2022-08-07T15:56:48.273Z,33.81
2022-08-07T15:59:52.957Z,34.06
2022-08-07T16:03:46.242Z,34.10
2022-08-07T16:06:54.449Z,34.71
2022-08-07T16:10:14.757Z,34.10
2022-08-07T16:13:58.855Z,34.34
2022-08-07T16:18:01.624Z,34.65
2022-08-07T16:22:01.322Z,35.12
2022-08-07T16:24:52.668Z,34.93
2022-08-07T16:29:18.621Z,35.21
2022-08-07T16:32:34.522Z,35.56
2022-08-07T16:35:52.147Z,35.46
2022-08-07T16:39:51.774Z,35.70
2022-08-07T16:43:01.131Z,35.75
2022-08-07T16:47:08.998Z,36.56
2022-08-07T16:50:27.542Z,36.42
2022-08-07T16:54:01.173Z,36.25
2022-08-07T16:58:02.213Z,37.09
2022-08-07T17:01:10.221Z,37.17
2022-08-07T17:04:36.929Z,38.04
2022-08-07T17:07:57.979Z,38.41
2022-08-07T17:11:05.539Z,38.85
2022-08-07T17:14:18.323Z,39.22
2022-08-07T17:17:49.119Z,38.76
2022-08-07T17:20:54.802Z,38.06
2022-08-07T17:24:16.339Z,38.00
2022-08-07T17:27:50.995Z,37.91
2022-08-07T17:31:33.147Z,37.99
2022-08-07T17:34:38.837Z,37.82
2022-08-07T17:38:05.885Z,37.31
2022-08-07T17:42:02.780Z,37.54
2022-08-07T17:44:58.683Z,37.37
2022-08-07T17:48:31.242Z,37.53
2022-08-07T17:52:00.500Z,37.28
2022-08-07T17:55:15.990Z,37.45
2022-08-07T17:58:56.698Z,37.53
2022-08-07T18:02:13.033Z,37.41
2022-08-07T18:06:03.290Z,37.26
2022-08-07T18:09:16.010Z,37.63
2022-08-07T18:12:51.545Z,37.71
2022-08-07T18:16:03.170Z,37.96
2022-08-07T18:21:08.229Z,38.28
2022-08-07T18:22:50.173Z,38.02
2022-08-07T18:26:01.873Z,37.89
2022-08-07T18:30:05.887Z,37.84
2022-08-07T18:32:51.146Z,37.91
2022-08-07T18:36:32.774Z,37.87
2022-08-07T18:40:07.210Z,38.05
2022-08-07T18:43:18.591Z,37.90
2022-08-07T18:47:07.377Z,37.66
2022-08-07T18:50:38.677Z,37.85
2022-08-07T18:53:59.402Z,38.33
2022-08-07T18:57:36.914Z,38.45
2022-08-07T19:00:55.102Z,37.34
2022-08-07T19:04:13.225Z,36.40
2022-08-07T19:07:34.817Z,36.14
2022-08-07T19:10:51.652Z,35.63
2022-08-07T19:14:11.562Z,35.50
2022-08-07T19:18:01.100Z,35.37
2022-08-07T19:21:47.899Z,35.57
2022-08-07T19:24:48.836Z,35.90
2022-08-07T19:28:57.868Z,36.15
2022-08-07T19:32:02.306Z,36.08
2022-08-07T19:34:57.173Z,36.36
2022-08-07T19:38:01.497Z,36.35
2022-08-07T19:41:05.755Z,36.44
2022-08-07T19:44:22.003Z,36.71
2022-08-07T19:47:31.240Z,36.61
2022-08-07T19:50:47.784Z,36.52
2022-08-07T19:54:32.173Z,36.79
2022-08-07T19:58:00.369Z,37.13
2022-08-07T20:00:53.955Z,37.26
2022-08-07T20:04:00.187Z,36.90
2022-08-07T20:07:09.031Z,37.02
2022-08-07T20:10:36.867Z,37.46
2022-08-07T20:13:46.343Z,37.73
2022-08-07T20:16:54.434Z,37.69
2022-08-07T20:19:59.034Z,37.84
2022-08-07T20:23:33.059Z,38.47
2022-08-07T20:26:45.104Z,38.47
2022-08-07T20:30:00.373Z,38.14
2022-08-07T20:33:09.095Z,38.23
2022-08-07T20:36:29.673Z,38.19
2022-08-07T20:40:04.402Z,38.66
2022-08-07T20:42:59.066Z,38.46
2022-08-07T20:46:27.450Z,38.50
2022-08-07T20:49:58.286Z,38.76
2022-08-07T20:52:51.683Z,38.84
2022-08-07T20:55:57.704Z,39.02
2022-08-07T20:59:05.321Z,39.06
2022-08-07T21:02:38.380Z,39.04
2022-08-07T21:05:56.662Z,39.19
2022-08-07T21:09:07.455Z,39.33
2022-08-07T21:12:28.706Z,39.68
2022-08-07T21:15:58.398Z,40.20
2022-08-07T21:19:01.133Z,39.92
2022-08-07T21:22:05.790Z,40.36
2022-08-07T21:25:22.615Z,40.38
2022-08-07T21:28:48.680Z,39.94
2022-08-07T21:32:43.646Z,39.94
2022-08-07T21:36:03.826Z,40.12
2022-08-07T21:39:01.603Z,40.57
2022-08-07T21:42:42.843Z,40.43
2022-08-07T21:46:24.310Z,40.40
2022-08-07T21:50:03.029Z,40.69
2022-08-07T21:53:17.093Z,40.33
2022-08-07T21:56:49.063Z,40.60
2022-08-07T22:00:07.365Z,40.36
2022-08-07T22:03:42.558Z,40.68
2022-08-07T22:07:08.827Z,40.48
2022-08-07T22:10:16.440Z,40.71
2022-08-07T22:13:24.625Z,40.79
2022-08-07T22:16:59.937Z,40.85
2022-08-07T22:20:28.053Z,41.13
2022-08-07T22:23:42.621Z,41.39
2022-08-07T22:26:53.570Z,41.68
2022-08-07T22:30:12.494Z,41.46
2022-08-07T22:33:17.154Z,41.63
2022-08-07T22:36:59.217Z,41.98
2022-08-07T22:40:35.856Z,41.75
2022-08-07T22:43:47.446Z,42.00
2022-08-07T22:47:09.357Z,42.22
2022-08-07T22:50:33.588Z,42.10
2022-08-07T22:54:07.501Z,42.11
2022-08-07T22:57:28.205Z,42.37
2022-08-07T23:00:41.559Z,42.82
2022-08-07T23:03:58.239Z,42.74
2022-08-07T23:07:41.527Z,43.29
2022-08-07T23:11:12.824Z,43.25
2022-08-07T23:14:48.392Z,43.25
2022-08-07T23:18:12.793Z,43.52
2022-08-07T23:21:29.814Z,43.87
2022-08-07T23:24:50.244Z,44.22
2022-08-07T23:28:28.904Z,44.45
2022-08-07T23:34:21.642Z,44.40
2022-08-07T23:35:19.169Z,44.77
2022-08-07T23:38:36.865Z,45.24
2022-08-07T23:42:15.616Z,45.95
2022-08-07T23:45:33.048Z,46.42
2022-08-07T23:49:07.970Z,46.81
2022-08-07T23:53:17.041Z,47.13
2022-08-07T23:56:54.036Z,47.66
